sensor_id;sensor_type;location;lat;lon;timestamp;pressure;altitude;pressure_sealevel;temperature;humidity
18821;BME280;9539;59.332;18.034;2023-12-20T08:55:44;98830.69;;;9.50;89.56
18821;BME280;9539;59.332;18.034;2023-12-20T08:58:07;98821.50;;;8.30;96.01
18821;BME280;9539;59.332;18.034;2023-12-20T09:00:29;98830.28;;;8.62;95.10
18821;BME280;9539;59.332;18.034;2023-12-20T09:02:51;98818.41;;;8.57;94.41
18821;BME280;9539;59.332;18.034;2023-12-20T09:05:13;98818.88;;;9.24;91.60
18821;BME280;9539;59.332;18.034;2023-12-20T09:07:35;98813.25;;;9.88;88.70
18821;BME280;9539;59.332;18.034;2023-12-20T09:09:57;98821.94;;;9.29;90.84
18821;BME280;9539;59.332;18.034;2023-12-20T09:12:22;98818.63;;;9.06;92.13
18821;BME280;9539;59.332;18.034;2023-12-20T09:14:45;98801.44;;;9.21;89.37
18821;BME280;9539;59.332;18.034;2023-12-20T09:17:08;98807.84;;;9.19;91.41
18821;BME280;9539;59.332;18.034;2023-12-20T09:19:32;98811.63;;;9.66;88.95
18821;BME280;9539;59.332;18.034;2023-12-20T09:21:54;98809.41;;;9.01;93.21
18821;BME280;9539;59.332;18.034;2023-12-20T09:24:16;98803.22;;;8.91;92.71
18821;BME280;9539;59.332;18.034;2023-12-20T09:26:38;98802.03;;;9.65;90.35
18821;BME280;9539;59.332;18.034;2023-12-20T09:29:02;98806.56;;;9.13;92.25
18821;BME280;9539;59.332;18.034;2023-12-20T09:31:24;98797.88;;;8.81;93.37
18821;BME280;9539;59.332;18.034;2023-12-20T09:33:46;98793.72;;;9.39;92.90
18821;BME280;9539;59.332;18.034;2023-12-20T09:36:08;98790.25;;;9.48;91.50
18821;BME280;9539;59.332;18.034;2023-12-20T09:38:30;98781.72;;;9.05;94.02
18821;BME280;9539;59.332;18.034;2023-12-20T09:40:52;98779.19;;;9.74;90.75
18821;BME280;9539;59.332;18.034;2023-12-20T09:43:15;98774.66;;;9.45;89.12
18821;BME280;9539;59.332;18.034;2023-12-20T09:45:38;98766.56;;;9.47;91.13
18821;BME280;9539;59.332;18.034;2023-12-20T09:48:03;98763.00;;;10.17;87.20
18821;BME280;9539;59.332;18.034;2023-12-20T09:50:26;98756.56;;;10.29;84.75
18821;BME280;9539;59.332;18.034;2023-12-20T09:52:51;98755.47;;;9.62;89.74
18821;BME280;9539;59.332;18.034;2023-12-20T09:55:14;98750.81;;;9.95;90.21
18821;BME280;9539;59.332;18.034;2023-12-20T09:57:37;98737.97;;;9.31;91.41
18821;BME280;9539;59.332;18.034;2023-12-20T09:59:59;98732.97;;;9.38;91.44
18821;BME280;9539;59.332;18.034;2023-12-20T10:02:25;98722.22;;;9.89;89.63
18821;BME280;9539;59.332;18.034;2023-12-20T10:04:48;98725.59;;;9.41;93.29
18821;BME280;9539;59.332;18.034;2023-12-20T10:07:10;98724.25;;;9.66;88.74
18821;BME280;9539;59.332;18.034;2023-12-20T10:09:32;98723.53;;;9.45;91.49
18821;BME280;9539;59.332;18.034;2023-12-20T10:11:55;98710.06;;;10.06;91.43
18821;BME280;9539;59.332;18.034;2023-12-20T10:14:17;98699.53;;;9.37;93.97
18821;BME280;9539;59.332;18.034;2023-12-20T10:16:40;98699.75;;;10.12;90.00
18821;BME280;9539;59.332;18.034;2023-12-20T10:19:04;98697.69;;;10.25;86.27
18821;BME280;9539;59.332;18.034;2023-12-20T10:21:26;98686.69;;;9.91;90.20
18821;BME280;9539;59.332;18.034;2023-12-20T10:23:48;98684.31;;;9.98;88.70
18821;BME280;9539;59.332;18.034;2023-12-20T10:26:19;98678.13;;;10.55;86.84
18821;BME280;9539;59.332;18.034;2023-12-20T10:28:41;98670.19;;;10.07;88.64
18821;BME280;9539;59.332;18.034;2023-12-20T10:31:03;98671.72;;;10.48;88.61
18821;BME280;9539;59.332;18.034;2023-12-20T10:33:26;98669.34;;;9.39;94.86
18821;BME280;9539;59.332;18.034;2023-12-20T10:35:50;98665.03;;;10.15;92.29
18821;BME280;9539;59.332;18.034;2023-12-20T10:38:12;98659.91;;;10.04;91.43
18821;BME280;9539;59.332;18.034;2023-12-20T10:40:35;98651.25;;;10.21;91.20
18821;BME280;9539;59.332;18.034;2023-12-20T10:42:58;98654.59;;;10.04;92.34
18821;BME280;9539;59.332;18.034;2023-12-20T10:45:22;98654.03;;;10.10;91.77
18821;BME280;9539;59.332;18.034;2023-12-20T10:47:46;98650.09;;;9.47;94.63
18821;BME280;9539;59.332;18.034;2023-12-20T10:50:09;98646.47;;;9.38;98.11
18821;BME280;9539;59.332;18.034;2023-12-20T10:52:32;98644.28;;;10.11;93.90
18821;BME280;9539;59.332;18.034;2023-12-20T10:54:56;98636.88;;;9.66;97.06
18821;BME280;9539;59.332;18.034;2023-12-20T10:57:18;98628.81;;;9.39;96.52
18821;BME280;9539;59.332;18.034;2023-12-20T10:59:41;98633.53;;;10.22;93.27
18821;BME280;9539;59.332;18.034;2023-12-20T11:02:06;98607.44;;;8.62;98.24
18821;BME280;9539;59.332;18.034;2023-12-20T11:04:34;98622.97;;;9.83;94.02
18821;BME280;9539;59.332;18.034;2023-12-20T11:07:04;98621.16;;;9.45;97.09
18821;BME280;9539;59.332;18.034;2023-12-20T11:09:34;98613.75;;;9.39;97.21
18821;BME280;9539;59.332;18.034;2023-12-20T11:12:04;98606.38;;;9.62;95.63
18821;BME280;9539;59.332;18.034;2023-12-20T11:14:34;98598.84;;;9.38;97.10
18821;BME280;9539;59.332;18.034;2023-12-20T11:17:07;98596.47;;;9.35;95.00
18821;BME280;9539;59.332;18.034;2023-12-20T11:19:29;98604.41;;;10.02;94.26
18821;BME280;9539;59.332;18.034;2023-12-20T11:21:51;98595.50;;;9.46;94.53
18821;BME280;9539;59.332;18.034;2023-12-20T11:24:15;98590.75;;;9.88;92.11
18821;BME280;9539;59.332;18.034;2023-12-20T11:26:46;98590.75;;;9.69;93.72
18821;BME280;9539;59.332;18.034;2023-12-20T11:29:34;98579.19;;;9.12;95.49
18821;BME280;9539;59.332;18.034;2023-12-20T11:31:56;98573.31;;;8.99;96.60
18821;BME280;9539;59.332;18.034;2023-12-20T11:34:18;98575.28;;;8.66;98.72
18821;BME280;9539;59.332;18.034;2023-12-20T11:36:40;98561.50;;;9.41;95.65
18821;BME280;9539;59.332;18.034;2023-12-20T11:39:04;98574.44;;;9.15;96.67
18821;BME280;9539;59.332;18.034;2023-12-20T11:41:29;98562.75;;;9.66;95.42
18821;BME280;9539;59.332;18.034;2023-12-20T11:43:54;98560.97;;;8.69;97.91
18821;BME280;9539;59.332;18.034;2023-12-20T11:46:17;98556.22;;;9.70;96.18
18821;BME280;9539;59.332;18.034;2023-12-20T11:48:39;98543.16;;;10.15;91.42
18821;BME280;9539;59.332;18.034;2023-12-20T11:51:01;98543.25;;;9.67;94.79
18821;BME280;9539;59.332;18.034;2023-12-20T11:53:24;98537.41;;;9.54;95.43
18821;BME280;9539;59.332;18.034;2023-12-20T11:55:47;98538.09;;;9.46;95.14
18821;BME280;9539;59.332;18.034;2023-12-20T11:58:09;98535.69;;;9.82;92.36
18821;BME280;9539;59.332;18.034;2023-12-20T12:00:33;98527.09;;;9.12;96.96
18821;BME280;9539;59.332;18.034;2023-12-20T12:02:57;98533.22;;;9.61;93.65
18821;BME280;9539;59.332;18.034;2023-12-20T12:05:19;98526.66;;;9.75;94.37
18821;BME280;9539;59.332;18.034;2023-12-20T12:07:42;98523.59;;;9.02;96.23
18821;BME280;9539;59.332;18.034;2023-12-20T12:10:05;98527.50;;;9.46;95.81
18821;BME280;9539;59.332;18.034;2023-12-20T12:12:28;98518.75;;;9.27;95.28
18821;BME280;9539;59.332;18.034;2023-12-20T12:14:51;98509.84;;;9.18;97.73
18821;BME280;9539;59.332;18.034;2023-12-20T12:17:15;98511.06;;;9.14;98.08
18821;BME280;9539;59.332;18.034;2023-12-20T12:19:38;98511.06;;;9.14;98.08
18821;BME280;9539;59.332;18.034;2023-12-20T12:22:10;98506.78;;;9.13;98.39
18821;BME280;9539;59.332;18.034;2023-12-20T12:24:34;98509.13;;;9.35;96.43
18821;BME280;9539;59.332;18.034;2023-12-20T12:26:57;98504.25;;;9.21;96.78
18821;BME280;9539;59.332;18.034;2023-12-20T12:29:19;98509.25;;;9.53;93.06
18821;BME280;9539;59.332;18.034;2023-12-20T12:31:41;98509.13;;;8.87;98.00
18821;BME280;9539;59.332;18.034;2023-12-20T12:34:05;98501.75;;;9.48;93.92
18821;BME280;9539;59.332;18.034;2023-12-20T12:36:29;98497.59;;;9.07;93.91
18821;BME280;9539;59.332;18.034;2023-12-20T12:38:51;98498.53;;;9.54;94.75
18821;BME280;9539;59.332;18.034;2023-12-20T12:41:14;98499.38;;;8.88;96.53
18821;BME280;9539;59.332;18.034;2023-12-20T12:43:37;98492.25;;;8.29;99.45
18821;BME280;9539;59.332;18.034;2023-12-20T12:45:59;98496.28;;;8.82;98.17
18821;BME280;9539;59.332;18.034;2023-12-20T12:48:21;98487.66;;;8.71;97.85
18821;BME280;9539;59.332;18.034;2023-12-20T12:50:45;98492.56;;;9.43;94.54
18821;BME280;9539;59.332;18.034;2023-12-20T12:53:07;98480.03;;;9.26;93.80
18821;BME280;9539;59.332;18.034;2023-12-20T12:55:29;98473.78;;;9.27;94.95
18821;BME280;9539;59.332;18.034;2023-12-20T12:57:51;98467.50;;;9.18;97.21
18821;BME280;9539;59.332;18.034;2023-12-20T13:00:13;98468.50;;;9.27;95.30
18821;BME280;9539;59.332;18.034;2023-12-20T13:02:35;98469.81;;;9.59;93.06
18821;BME280;9539;59.332;18.034;2023-12-20T13:04:58;98463.00;;;9.57;93.16
18821;BME280;9539;59.332;18.034;2023-12-20T13:07:22;98458.72;;;9.37;93.71
18821;BME280;9539;59.332;18.034;2023-12-20T13:09:44;98459.69;;;8.97;96.08
18821;BME280;9539;59.332;18.034;2023-12-20T13:12:07;98455.53;;;8.85;100.00
18821;BME280;9539;59.332;18.034;2023-12-20T13:14:30;98456.50;;;9.13;96.57
18821;BME280;9539;59.332;18.034;2023-12-20T13:16:53;98449.78;;;10.03;91.85
18821;BME280;9539;59.332;18.034;2023-12-20T13:19:16;98442.50;;;10.06;92.35
18821;BME280;9539;59.332;18.034;2023-12-20T13:21:38;98438.91;;;9.50;92.43
18821;BME280;9539;59.332;18.034;2023-12-20T13:24:02;98442.09;;;9.63;92.50
18821;BME280;9539;59.332;18.034;2023-12-20T13:26:25;98440.88;;;9.29;94.66
18821;BME280;9539;59.332;18.034;2023-12-20T13:28:47;98438.38;;;9.37;95.75
18821;BME280;9539;59.332;18.034;2023-12-20T13:31:09;98438.38;;;9.28;96.96
18821;BME280;9539;59.332;18.034;2023-12-20T13:33:31;98431.56;;;8.48;100.00
18821;BME280;9539;59.332;18.034;2023-12-20T13:35:53;98433.13;;;9.84;96.19
18821;BME280;9539;59.332;18.034;2023-12-20T13:38:16;98428.06;;;9.34;96.70
18821;BME280;9539;59.332;18.034;2023-12-20T13:40:40;98427.97;;;9.07;99.00
18821;BME280;9539;59.332;18.034;2023-12-20T13:43:02;98426.16;;;9.07;99.40
18821;BME280;9539;59.332;18.034;2023-12-20T13:45:24;98428.78;;;9.36;98.08
18821;BME280;9539;59.332;18.034;2023-12-20T13:47:46;98425.91;;;9.01;99.72
18821;BME280;9539;59.332;18.034;2023-12-20T13:50:10;98419.84;;;9.28;100.00
18821;BME280;9539;59.332;18.034;2023-12-20T13:52:32;98414.47;;;9.00;100.00
18821;BME280;9539;59.332;18.034;2023-12-20T13:54:54;98419.56;;;9.40;98.67
18821;BME280;9539;59.332;18.034;2023-12-20T13:57:17;98421.13;;;9.23;99.48
18821;BME280;9539;59.332;18.034;2023-12-20T13:59:39;98427.09;;;9.91;97.17
18821;BME280;9539;59.332;18.034;2023-12-20T14:02:01;98420.84;;;10.47;93.17
18821;BME280;9539;59.332;18.034;2023-12-20T14:04:24;98415.56;;;11.00;88.23
18821;BME280;9539;59.332;18.034;2023-12-20T14:06:46;98426.72;;;9.77;97.19
18821;BME280;9539;59.332;18.034;2023-12-20T14:09:08;98415.94;;;9.41;98.66
18821;BME280;9539;59.332;18.034;2023-12-20T14:11:32;98414.78;;;9.53;97.87
18821;BME280;9539;59.332;18.034;2023-12-20T14:13:55;98420.47;;;10.60;91.59
18821;BME280;9539;59.332;18.034;2023-12-20T14:16:18;98410.25;;;9.83;97.98
18821;BME280;9539;59.332;18.034;2023-12-20T14:18:41;98414.13;;;10.25;95.48
18821;BME280;9539;59.332;18.034;2023-12-20T14:21:03;98408.31;;;9.85;96.11
18821;BME280;9539;59.332;18.034;2023-12-20T14:23:26;98412.59;;;9.86;97.38
18821;BME280;9539;59.332;18.034;2023-12-20T14:25:48;98409.03;;;9.77;96.85
18821;BME280;9539;59.332;18.034;2023-12-20T14:28:10;98410.91;;;9.57;99.11
18821;BME280;9539;59.332;18.034;2023-12-20T14:30:36;98407.13;;;9.97;96.48
18821;BME280;9539;59.332;18.034;2023-12-20T14:32:59;98404.28;;;10.08;96.07
18821;BME280;9539;59.332;18.034;2023-12-20T14:35:21;98396.00;;;10.66;93.54
18821;BME280;9539;59.332;18.034;2023-12-20T14:37:46;98401.59;;;10.18;94.85
18821;BME280;9539;59.332;18.034;2023-12-20T14:40:09;98395.88;;;10.22;95.10
18821;BME280;9539;59.332;18.034;2023-12-20T14:42:35;98394.78;;;10.43;93.45
18821;BME280;9539;59.332;18.034;2023-12-20T14:44:57;98394.78;;;10.43;93.45
18821;BME280;9539;59.332;18.034;2023-12-20T14:47:21;98400.44;;;9.93;95.60
18821;BME280;9539;59.332;18.034;2023-12-20T14:49:45;98397.38;;;10.25;95.74
18821;BME280;9539;59.332;18.034;2023-12-20T14:52:08;98396.34;;;10.08;97.76
18821;BME280;9539;59.332;18.034;2023-12-20T14:54:31;98398.53;;;10.13;97.40
18821;BME280;9539;59.332;18.034;2023-12-20T14:56:53;98400.97;;;10.51;96.83
18821;BME280;9539;59.332;18.034;2023-12-20T14:59:16;98397.06;;;10.91;90.79
18821;BME280;9539;59.332;18.034;2023-12-20T15:01:38;98398.38;;;10.69;94.92
18821;BME280;9539;59.332;18.034;2023-12-20T15:04:02;98401.53;;;10.90;91.29
18821;BME280;9539;59.332;18.034;2023-12-20T15:06:24;98395.84;;;11.03;90.31
18821;BME280;9539;59.332;18.034;2023-12-20T15:08:46;98384.81;;;11.85;87.37
18821;BME280;9539;59.332;18.034;2023-12-20T15:11:08;98392.06;;;11.75;85.15
18821;BME280;9539;59.332;18.034;2023-12-20T15:13:30;98389.16;;;11.94;86.12
18821;BME280;9539;59.332;18.034;2023-12-20T15:15:53;98389.16;;;11.94;86.12
18821;BME280;9539;59.332;18.034;2023-12-20T15:18:15;98382.38;;;12.41;81.58
18821;BME280;9539;59.332;18.034;2023-12-20T15:20:38;98371.94;;;11.72;85.09
18821;BME280;9539;59.332;18.034;2023-12-20T15:23:00;98372.88;;;12.39;82.20
18821;BME280;9539;59.332;18.034;2023-12-20T15:25:27;98379.06;;;11.97;83.49
18821;BME280;9539;59.332;18.034;2023-12-20T15:27:49;98385.16;;;11.64;87.99
18821;BME280;9539;59.332;18.034;2023-12-20T15:30:13;98383.34;;;11.39;87.53
18821;BME280;9539;59.332;18.034;2023-12-20T15:32:35;98375.88;;;11.34;87.98
18821;BME280;9539;59.332;18.034;2023-12-20T15:34:57;98376.88;;;11.93;86.27
18821;BME280;9539;59.332;18.034;2023-12-20T15:37:20;98376.88;;;11.93;86.27
18821;BME280;9539;59.332;18.034;2023-12-20T15:39:43;98371.94;;;12.56;83.45
18821;BME280;9539;59.332;18.034;2023-12-20T15:42:05;98364.19;;;12.21;84.41
18821;BME280;9539;59.332;18.034;2023-12-20T15:44:27;98367.06;;;12.35;81.77
18821;BME280;9539;59.332;18.034;2023-12-20T15:46:48;98366.09;;;11.17;88.25
18821;BME280;9539;59.332;18.034;2023-12-20T15:49:10;98359.97;;;12.02;83.79
18821;BME280;9539;59.332;18.034;2023-12-20T15:51:33;98367.19;;;12.18;82.55
18821;BME280;9539;59.332;18.034;2023-12-20T15:53:57;98358.81;;;12.63;80.08
18821;BME280;9539;59.332;18.034;2023-12-20T15:56:22;98358.97;;;12.77;78.51
18821;BME280;9539;59.332;18.034;2023-12-20T15:58:44;98357.19;;;12.12;81.31
18821;BME280;9539;59.332;18.034;2023-12-20T16:01:08;98357.31;;;12.60;78.91
18821;BME280;9539;59.332;18.034;2023-12-20T16:03:30;98357.16;;;12.70;78.86
18821;BME280;9539;59.332;18.034;2023-12-20T16:05:52;98359.78;;;12.54;79.02
18821;BME280;9539;59.332;18.034;2023-12-20T16:08:14;98360.75;;;12.45;78.01
18821;BME280;9539;59.332;18.034;2023-12-20T16:10:38;98348.34;;;12.61;78.26
18821;BME280;9539;59.332;18.034;2023-12-20T16:13:00;98357.25;;;12.36;79.17
18821;BME280;9539;59.332;18.034;2023-12-20T16:15:22;98359.75;;;12.46;78.49
18821;BME280;9539;59.332;18.034;2023-12-20T16:17:44;98363.25;;;12.46;78.66
18821;BME280;9539;59.332;18.034;2023-12-20T16:20:08;98361.47;;;12.71;77.79
18821;BME280;9539;59.332;18.034;2023-12-20T16:22:30;98361.47;;;12.71;77.79
18821;BME280;9539;59.332;18.034;2023-12-20T16:24:52;98358.56;;;12.24;79.39
18821;BME280;9539;59.332;18.034;2023-12-20T16:27:16;98359.47;;;12.57;79.41
18821;BME280;9539;59.332;18.034;2023-12-20T16:29:38;98354.97;;;11.73;81.60
18821;BME280;9539;59.332;18.034;2023-12-20T16:32:00;98354.59;;;11.86;84.13
18821;BME280;9539;59.332;18.034;2023-12-20T16:34:22;98354.22;;;11.81;82.49
18821;BME280;9539;59.332;18.034;2023-12-20T16:36:49;98351.91;;;11.78;83.78
18821;BME280;9539;59.332;18.034;2023-12-20T16:39:12;98353.53;;;12.13;81.20
18821;BME280;9539;59.332;18.034;2023-12-20T16:41:34;98356.00;;;13.05;74.92
18821;BME280;9539;59.332;18.034;2023-12-20T16:43:57;98354.38;;;13.28;74.02
18821;BME280;9539;59.332;18.034;2023-12-20T16:46:19;98349.41;;;11.76;78.21
18821;BME280;9539;59.332;18.034;2023-12-20T16:48:41;98349.41;;;11.76;78.21
18821;BME280;9539;59.332;18.034;2023-12-20T16:51:04;98355.94;;;11.12;84.72
18821;BME280;9539;59.332;18.034;2023-12-20T16:53:26;98351.91;;;10.47;90.09
18821;BME280;9539;59.332;18.034;2023-12-20T16:55:48;98351.91;;;10.47;90.09
18821;BME280;9539;59.332;18.034;2023-12-20T16:58:10;98351.47;;;11.90;83.34
18821;BME280;9539;59.332;18.034;2023-12-20T17:00:33;98359.94;;;11.34;83.79
18821;BME280;9539;59.332;18.034;2023-12-20T17:02:55;98349.03;;;12.13;81.64
18821;BME280;9539;59.332;18.034;2023-12-20T17:05:17;98343.91;;;12.20;79.59
18821;BME280;9539;59.332;18.034;2023-12-20T17:07:40;98344.81;;;12.36;78.54
18821;BME280;9539;59.332;18.034;2023-12-20T17:10:03;98352.34;;;11.99;79.57
18821;BME280;9539;59.332;18.034;2023-12-20T17:12:25;98350.47;;;12.41;78.15
18821;BME280;9539;59.332;18.034;2023-12-20T17:14:46;98345.44;;;12.30;78.67
18821;BME280;9539;59.332;18.034;2023-12-20T17:17:10;98345.44;;;12.30;78.67
18821;BME280;9539;59.332;18.034;2023-12-20T17:19:32;98345.44;;;12.30;78.67
18821;BME280;9539;59.332;18.034;2023-12-20T17:21:54;98338.84;;;12.51;78.12
18821;BME280;9539;59.332;18.034;2023-12-20T17:24:16;98345.63;;;11.87;80.86
18821;BME280;9539;59.332;18.034;2023-12-20T17:26:38;98342.50;;;11.99;80.54
18821;BME280;9539;59.332;18.034;2023-12-20T17:29:00;98339.28;;;11.80;80.77
18821;BME280;9539;59.332;18.034;2023-12-20T17:31:22;98339.28;;;11.80;80.77
18821;BME280;9539;59.332;18.034;2023-12-20T17:33:45;98342.06;;;12.04;79.31
18821;BME280;9539;59.332;18.034;2023-12-20T17:36:07;98329.97;;;11.76;81.82
18821;BME280;9539;59.332;18.034;2023-12-20T17:38:31;98337.72;;;12.03;79.97
18821;BME280;9539;59.332;18.034;2023-12-20T17:40:56;98335.16;;;12.35;78.48
18821;BME280;9539;59.332;18.034;2023-12-20T17:43:18;98329.03;;;11.93;79.58
18821;BME280;9539;59.332;18.034;2023-12-20T17:45:40;98322.09;;;12.00;77.81
18821;BME280;9539;59.332;18.034;2023-12-20T17:48:03;98331.88;;;11.99;79.48
18821;BME280;9539;59.332;18.034;2023-12-20T17:50:26;98333.06;;;11.97;79.50
18821;BME280;9539;59.332;18.034;2023-12-20T17:52:48;98328.38;;;12.49;77.99
18821;BME280;9539;59.332;18.034;2023-12-20T17:55:10;98321.97;;;12.10;79.22
18821;BME280;9539;59.332;18.034;2023-12-20T17:57:32;98326.09;;;12.12;77.70
18821;BME280;9539;59.332;18.034;2023-12-20T17:59:54;98323.78;;;12.09;79.14
18821;BME280;9539;59.332;18.034;2023-12-20T18:02:16;98323.25;;;12.06;80.72
18821;BME280;9539;59.332;18.034;2023-12-20T18:04:39;98321.69;;;11.87;78.85
18821;BME280;9539;59.332;18.034;2023-12-20T18:07:02;98321.69;;;11.87;78.85
18821;BME280;9539;59.332;18.034;2023-12-20T18:09:24;98319.41;;;11.92;82.21
18821;BME280;9539;59.332;18.034;2023-12-20T18:11:46;98320.13;;;12.10;77.96
18821;BME280;9539;59.332;18.034;2023-12-20T18:14:07;98326.00;;;12.38;76.69
18821;BME280;9539;59.332;18.034;2023-12-20T18:16:30;98326.00;;;12.38;76.69
18821;BME280;9539;59.332;18.034;2023-12-20T18:18:52;98324.59;;;12.01;76.94
18821;BME280;9539;59.332;18.034;2023-12-20T18:21:15;98314.94;;;12.00;77.64
18821;BME280;9539;59.332;18.034;2023-12-20T18:23:38;98321.56;;;11.62;80.52
18821;BME280;9539;59.332;18.034;2023-12-20T18:26:00;98323.25;;;11.63;80.08
18821;BME280;9539;59.332;18.034;2023-12-20T18:28:22;98315.38;;;11.20;83.17
18821;BME280;9539;59.332;18.034;2023-12-20T18:30:44;98319.22;;;11.85;79.67
18821;BME280;9539;59.332;18.034;2023-12-20T18:33:06;98320.47;;;12.15;78.63
18821;BME280;9539;59.332;18.034;2023-12-20T18:35:28;98309.81;;;11.99;77.80
18821;BME280;9539;59.332;18.034;2023-12-20T18:37:51;98314.97;;;11.41;82.16
18821;BME280;9539;59.332;18.034;2023-12-20T18:40:14;98315.41;;;10.23;88.50
18821;BME280;9539;59.332;18.034;2023-12-20T18:42:37;98323.75;;;11.07;85.38
18821;BME280;9539;59.332;18.034;2023-12-20T18:45:00;98326.97;;;10.40;90.30
18821;BME280;9539;59.332;18.034;2023-12-20T18:47:24;98318.84;;;11.80;83.11
18821;BME280;9539;59.332;18.034;2023-12-20T18:49:46;98320.41;;;11.05;83.66
18821;BME280;9539;59.332;18.034;2023-12-20T18:52:08;98320.25;;;11.33;85.54
18821;BME280;9539;59.332;18.034;2023-12-20T18:54:29;98318.44;;;10.46;89.08
18821;BME280;9539;59.332;18.034;2023-12-20T18:56:53;98318.44;;;10.46;89.08
18821;BME280;9539;59.332;18.034;2023-12-20T18:59:15;98306.66;;;10.31;91.47
18821;BME280;9539;59.332;18.034;2023-12-20T19:01:40;98301.31;;;9.95;94.11
18821;BME280;9539;59.332;18.034;2023-12-20T19:04:02;98301.31;;;9.95;94.11
18821;BME280;9539;59.332;18.034;2023-12-20T19:06:24;98303.78;;;10.24;91.75
18821;BME280;9539;59.332;18.034;2023-12-20T19:08:46;98307.34;;;10.51;92.83
18821;BME280;9539;59.332;18.034;2023-12-20T19:11:10;98300.63;;;11.26;86.95
18821;BME280;9539;59.332;18.034;2023-12-20T19:13:34;98300.63;;;11.26;86.95
18821;BME280;9539;59.332;18.034;2023-12-20T19:15:56;98300.63;;;11.26;86.95
18821;BME280;9539;59.332;18.034;2023-12-20T19:18:17;98305.75;;;11.79;83.22
18821;BME280;9539;59.332;18.034;2023-12-20T19:20:39;98309.72;;;11.49;81.28
18821;BME280;9539;59.332;18.034;2023-12-20T19:23:01;98309.72;;;11.49;84.12
18821;BME280;9539;59.332;18.034;2023-12-20T19:25:23;98306.94;;;10.99;85.43
18821;BME280;9539;59.332;18.034;2023-12-20T19:27:45;98294.41;;;11.43;83.16
18821;BME280;9539;59.332;18.034;2023-12-20T19:30:09;98305.81;;;11.27;84.89
18821;BME280;9539;59.332;18.034;2023-12-20T19:32:32;98305.94;;;11.85;81.26
18821;BME280;9539;59.332;18.034;2023-12-20T19:34:54;98294.88;;;11.98;79.91
18821;BME280;9539;59.332;18.034;2023-12-20T19:37:16;98302.34;;;11.69;80.05
18821;BME280;9539;59.332;18.034;2023-12-20T19:39:38;98297.81;;;11.61;79.72
18821;BME280;9539;59.332;18.034;2023-12-20T19:42:00;98297.56;;;11.38;81.51
18821;BME280;9539;59.332;18.034;2023-12-20T19:44:22;98316.63;;;11.34;80.46
18821;BME280;9539;59.332;18.034;2023-12-20T19:46:46;98311.91;;;11.53;80.16
18821;BME280;9539;59.332;18.034;2023-12-20T19:49:10;98310.56;;;11.49;81.72
18821;BME280;9539;59.332;18.034;2023-12-20T19:51:32;98322.16;;;11.14;82.51
18821;BME280;9539;59.332;18.034;2023-12-20T19:53:54;98322.66;;;11.18;84.07
18821;BME280;9539;59.332;18.034;2023-12-20T19:56:16;98315.78;;;11.07;84.00
18821;BME280;9539;59.332;18.034;2023-12-20T19:58:38;98324.28;;;11.71;81.40
18821;BME280;9539;59.332;18.034;2023-12-20T20:01:00;98321.00;;;11.77;79.96
18821;BME280;9539;59.332;18.034;2023-12-20T20:03:23;98333.78;;;11.21;83.60
18821;BME280;9539;59.332;18.034;2023-12-20T20:05:45;98320.03;;;11.52;79.77
18821;BME280;9539;59.332;18.034;2023-12-20T20:08:07;98316.50;;;12.11;78.06
18821;BME280;9539;59.332;18.034;2023-12-20T20:10:29;98313.19;;;12.33;76.72
18821;BME280;9539;59.332;18.034;2023-12-20T20:12:51;98316.84;;;12.32;75.25
18821;BME280;9539;59.332;18.034;2023-12-20T20:15:13;98316.84;;;12.32;74.68
18821;BME280;9539;59.332;18.034;2023-12-20T20:17:36;98320.34;;;12.33;74.70
18821;BME280;9539;59.332;18.034;2023-12-20T20:20:00;98310.69;;;12.16;74.14
18821;BME280;9539;59.332;18.034;2023-12-20T20:22:22;98318.66;;;12.16;74.38
18821;BME280;9539;59.332;18.034;2023-12-20T20:24:44;98320.28;;;12.09;74.30
18821;BME280;9539;59.332;18.034;2023-12-20T20:27:06;98320.63;;;11.38;78.48
18821;BME280;9539;59.332;18.034;2023-12-20T20:29:28;98319.19;;;11.51;79.15
18821;BME280;9539;59.332;18.034;2023-12-20T20:31:50;98321.53;;;11.29;79.72
18821;BME280;9539;59.332;18.034;2023-12-20T20:34:12;98313.09;;;11.93;76.85
18821;BME280;9539;59.332;18.034;2023-12-20T20:36:37;98317.91;;;11.89;76.24
18821;BME280;9539;59.332;18.034;2023-12-20T20:38:58;98313.03;;;11.77;77.02
18821;BME280;9539;59.332;18.034;2023-12-20T20:41:21;98318.75;;;11.90;76.89
18821;BME280;9539;59.332;18.034;2023-12-20T20:43:43;98310.56;;;11.49;78.03
18821;BME280;9539;59.332;18.034;2023-12-20T20:46:05;98312.09;;;11.00;81.26
18821;BME280;9539;59.332;18.034;2023-12-20T20:48:27;98310.78;;;9.98;89.71
18821;BME280;9539;59.332;18.034;2023-12-20T20:50:49;98309.09;;;10.24;88.62
18821;BME280;9539;59.332;18.034;2023-12-20T20:53:12;98307.31;;;11.97;80.52
18821;BME280;9539;59.332;18.034;2023-12-20T20:55:34;98305.25;;;11.83;78.82
18821;BME280;9539;59.332;18.034;2023-12-20T20:57:56;98311.81;;;12.05;78.43
18821;BME280;9539;59.332;18.034;2023-12-20T21:00:19;98307.41;;;12.46;75.41
18821;BME280;9539;59.332;18.034;2023-12-20T21:02:40;98306.41;;;12.71;72.57
18821;BME280;9539;59.332;18.034;2023-12-20T21:05:03;98313.72;;;12.37;75.07
18821;BME280;9539;59.332;18.034;2023-12-20T21:07:25;98298.81;;;12.76;72.71
18821;BME280;9539;59.332;18.034;2023-12-20T21:09:48;98300.13;;;12.89;70.98
18821;BME280;9539;59.332;18.034;2023-12-20T21:12:11;98301.97;;;12.64;71.19
18821;BME280;9539;59.332;18.034;2023-12-20T21:14:33;98289.13;;;13.16;69.59
18821;BME280;9539;59.332;18.034;2023-12-20T21:16:55;98287.47;;;12.99;70.54
18821;BME280;9539;59.332;18.034;2023-12-20T21:19:17;98285.06;;;13.44;67.94
18821;BME280;9539;59.332;18.034;2023-12-20T21:21:39;98291.22;;;13.53;66.72
18821;BME280;9539;59.332;18.034;2023-12-20T21:24:01;98301.44;;;12.68;70.09
18821;BME280;9539;59.332;18.034;2023-12-20T21:26:25;98293.44;;;12.52;71.09
18821;BME280;9539;59.332;18.034;2023-12-20T21:28:47;98289.28;;;12.33;71.54
18821;BME280;9539;59.332;18.034;2023-12-20T21:31:09;98289.94;;;12.27;72.83
18821;BME280;9539;59.332;18.034;2023-12-20T21:33:31;98279.88;;;11.89;74.53
18821;BME280;9539;59.332;18.034;2023-12-20T21:35:53;98285.19;;;11.89;74.46